Time;durP1;ratioP1;P1;durP2;ratioP2;P2;SDS_P1;SDS_P2;PMS_P1;PMS_P2;Temp;Humidity;BMP_temperature;BMP_pressure;BME280_temperature;BME280_humidity;BME280_pressure;Samples;Min_cycle;Max_cycle;Signal;HPM_P1;HPM_P2
2022/07/02 04:34:31;;;;;;;4.50;2.15;;;13.20;99.90;;;;;;6217723;23;20024;-83
2022/07/02 05:36:00;;;;;;;4.82;2.17;;;18.60;99.90;;;;;;6178387;23;20021;-83
2022/07/02 05:38:29;;;;;;;3.88;1.83;;;19.30;99.90;;;;;;6191504;23;19998;-85
2022/07/02 05:40:55;;;;;;;3.92;1.80;;;;;;;;;;6166902;23;20002;-84
2022/07/02 05:43:30;;;;;;;4.03;1.70;;;20.00;98.80;;;;;;6203280;23;20004;-83
2022/07/02 05:45:56;;;;;;;3.55;2.00;;;19.90;98.70;;;;;;6196968;23;20055;-85
2022/07/02 05:48:23;;;;;;;6.60;2.10;;;20.90;98.10;;;;;;6223840;23;20008;-83
2022/07/02 05:50:55;;;;;;;6.20;2.17;;;;;;;;;;6221473;23;20389;-85
2022/07/02 05:53:24;;;;;;;5.75;2.13;;;20.80;96.20;;;;;;6223422;23;19997;-84
2022/07/02 05:56:09;;;;;;;4.07;2.03;;;21.00;96.70;;;;;;6196360;23;19997;-85
2022/07/02 05:59:04;;;;;;;;;;;;;;;;;;;;;
2022/07/02 06:01:31;;;;;;;4.53;2.10;;;;;;;;;;6226401;23;20031;-84
2022/07/02 06:04:03;;;;;;;3.97;1.90;;;;;;;;;;6200587;23;20008;-84
2022/07/02 06:09:20;;;;;;;5.25;1.90;;;20.60;96.30;;;;;;6223594;23;20055;-84
2022/07/02 08:18:18;;;;;;;1.23;0.70;;;22.20;90.80;;;;;;6152497;23;20009;-87
2022/07/02 08:20:45;;;;;;;1.98;0.80;;;;;;;;;;6149081;23;20013;-88
2022/07/02 09:54:31;;;;;;;1.17;0.60;;;;;;;;;;6244346;23;20016;-87
2022/07/02 09:57:31;;;;;;;1.02;0.60;;;24.80;70.60;;;;;;6198874;23;20016;-84
2022/07/02 10:00:21;;;;;;;1.17;0.60;;;24.80;71.00;;;;;;6188061;23;20016;-86
2022/07/02 10:54:46;;;;;;;0.70;0.60;;;26.30;65.70;;;;;;6150999;23;20001;-89
2022/07/02 13:06:05;;;;;;;2.08;0.70;;;27.90;63.40;;;;;;6021322;23;20065;-83
2022/07/02 13:16:15;;;;;;;0.65;0.50;;;27.90;63.20;;;;;;6022216;23;20039;-82
2022/07/02 13:23:29;;;;;;;2.33;0.63;;;27.90;61.40;;;;;;5995070;24;20071;-82
2022/07/02 13:26:57;;;;;;;3.03;0.85;;;27.60;61.00;;;;;;5883715;24;20142;-82
2022/07/02 16:41:49;;;;;;;1.55;0.70;;;28.80;57.50;;;;;;6196372;23;20016;-89
2022/07/02 16:44:22;;;;;;;1.48;0.70;;;28.80;57.60;;;;;;6167990;23;20009;-88
2022/07/02 16:46:53;;;;;;;0.85;0.63;;;28.80;57.50;;;;;;6139144;23;20052;-89
2022/07/02 16:49:25;;;;;;;1.30;0.70;;;28.90;57.70;;;;;;6137797;23;20613;-87
2022/07/02 16:52:02;;;;;;;1.45;0.75;;;28.80;57.30;;;;;;6113474;23;20025;-89
2022/07/02 16:54:31;;;;;;;2.15;1.50;;;28.90;57.90;;;;;;6138409;23;20014;-87
2022/07/02 17:05:30;;;;;;;3.22;0.90;;;28.90;56.20;;;;;;6189539;23;20017;-85
2022/07/02 17:08:01;;;;;;;1.20;0.90;;;28.90;56.00;;;;;;6166461;23;20331;-83
2022/07/02 17:13:26;;;;;;;1.92;0.85;;;28.90;55.70;;;;;;6206166;23;20019;-82
2022/07/02 17:15:53;;;;;;;1.85;0.90;;;;;;;;;;6176477;23;20013;-83
2022/07/02 17:18:21;;;;;;;;;;;29.00;56.00;;;;;;6226894;23;20062;-84
2022/07/02 17:20:50;;;;;;;1.00;0.82;;;29.10;57.10;;;;;;6196432;23;19947;-82
2022/07/02 17:23:16;;;;;;;2.45;1.55;;;29.10;56.50;;;;;;6196183;23;20027;-84
2022/07/02 17:25:42;;;;;;;3.17;1.13;;;29.10;57.00;;;;;;6221138;23;20005;-86
2022/07/02 17:28:09;;;;;;;3.35;1.80;;;29.10;57.00;;;;;;6220853;23;20005;-85
2022/07/02 17:30:35;;;;;;;2.78;1.40;;;;;;;;;;6196048;23;20016;-83
2022/07/02 17:33:01;;;;;;;1.42;0.90;;;29.30;56.40;;;;;;6222286;23;20347;-87
2022/07/02 17:35:27;;;;;;;1.35;0.80;;;;;;;;;;6196295;23;20019;-85
2022/07/02 17:37:53;;;;;;;1.00;0.77;;;29.20;56.50;;;;;;6195477;23;20004;-85
2022/07/02 17:40:19;;;;;;;2.53;0.80;;;;;;;;;;6195836;23;20068;-84
2022/07/02 17:42:46;;;;;;;2.53;0.93;;;29.00;56.50;;;;;;6194663;23;20007;-85
2022/07/02 17:45:12;;;;;;;2.00;1.10;;;29.00;57.00;;;;;;6220486;23;20015;-85
2022/07/02 17:47:38;;;;;;;1.52;0.85;;;29.10;56.90;;;;;;6220046;23;20004;-86
2022/07/02 17:50:10;;;;;;;1.95;1.20;;;29.10;56.70;;;;;;6195466;23;20004;-87
2022/07/02 17:52:37;;;;;;;2.00;1.10;;;29.00;56.80;;;;;;6220964;23;20008;-85
2022/07/02 17:55:06;;;;;;;3.38;1.20;;;29.00;57.40;;;;;;6196403;23;20028;-84
2022/07/02 17:57:32;;;;;;;2.28;1.30;;;;;;;;;;6196555;23;20407;-83
2022/07/02 17:59:59;;;;;;;2.17;1.35;;;;;;;;;;6194731;23;20004;-84
2022/07/02 18:02:28;;;;;;;2.35;1.00;;;28.30;57.90;;;;;;6194684;23;20035;-84
2022/07/02 18:04:53;;;;;;;2.90;1.43;;;27.90;58.50;;;;;;6219104;23;20017;-83
2022/07/02 18:07:20;;;;;;;2.20;1.30;;;27.70;58.70;;;;;;6218131;23;20068;-85
2022/07/02 18:09:46;;;;;;;12.60;9.18;;;;;;;;;;6221111;23;20012;-83
2022/07/02 18:12:12;;;;;;;4.05;2.80;;;27.40;59.40;;;;;;6193568;23;20031;-82
2022/07/02 18:14:41;;;;;;;4.80;3.45;;;;;;;;;;6217404;23;20446;-84
2022/07/02 18:17:07;;;;;;;2.70;1.52;;;;;;;;;;6193647;23;20013;-82
2022/07/02 18:19:34;;;;;;;7.65;2.47;;;27.00;60.00;;;;;;6193637;23;20264;-83
2022/07/02 18:22:00;;;;;;;2.72;1.42;;;27.00;60.50;;;;;;6220930;23;20020;-81
2022/07/02 18:24:27;;;;;;;3.45;1.85;;;;;;;;;;6221200;23;20007;-82
2022/07/02 18:26:53;;;;;;;4.90;1.45;;;;;;;;;;6221266;23;19997;-83
2022/07/02 18:29:19;;;;;;;3.42;2.03;;;26.70;60.60;;;;;;6194351;23;20004;-82
2022/07/02 18:31:46;;;;;;;1.80;1.10;;;26.60;61.00;;;;;;6220420;23;20020;-81
2022/07/02 18:34:12;;;;;;;3.10;1.60;;;26.60;61.20;;;;;;6196469;23;20059;-82
2022/07/02 18:36:38;;;;;;;3.50;2.00;;;;;;;;;;6221993;23;20004;-82
2022/07/02 18:39:05;;;;;;;2.95;1.40;;;;;;;;;;6196483;23;20008;-82
2022/07/02 18:41:31;;;;;;;11.48;8.15;;;;;;;;;;6196413;23;20084;-82
2022/07/02 18:43:57;;;;;;;8.25;3.83;;;;;;;;;;6223423;23;20001;-82
2022/07/02 18:46:24;;;;;;;4.53;2.25;;;;;;;;;;6222229;23;20523;-82
2022/07/02 18:48:51;;;;;;;3.50;2.22;;;;;;;;;;6196377;23;20000;-82
2022/07/02 18:51:17;;;;;;;3.05;1.60;;;;;;;;;;6198900;23;20072;-81
2022/07/02 19:18:12;;;;;;;12.32;7.50;;;25.90;64.70;;;;;;6183739;23;20080;-82
2022/07/02 19:25:13;;;;;;;4.60;1.90;;;25.50;68.50;;;;;;6143132;23;20020;-81
2022/07/02 19:32:00;;;;;;;5.82;1.73;;;25.10;70.50;;;;;;6059402;23;20026;-82
2022/07/02 19:45:54;;;;;;;16.33;1.77;;;24.30;73.80;;;;;;5978653;24;20012;-86
2022/07/02 20:02:33;;;;;;;;;;;;;;;;;;;;;
2022/07/02 20:23:15;;;;;;;2.88;1.80;;;22.80;79.10;;;;;;5912086;24;20076;-83
